sensor_id;sensor_type;location;lat;lon;timestamp;pressure;altitude;pressure_sealevel;temperature;humidity
56689;BME280;42565;53.342;-1.534;2023-05-23T00:01:04;100069.81;;;16.85;45.97
56689;BME280;42565;53.342;-1.534;2023-05-23T00:03:31;100080.95;;;16.07;47.42
56689;BME280;42565;53.342;-1.534;2023-05-23T00:05:59;100085.20;;;15.88;47.64
56689;BME280;42565;53.342;-1.534;2023-05-23T00:08:27;100085.49;;;15.63;48.52
56689;BME280;42565;53.342;-1.534;2023-05-23T00:10:54;100087.06;;;16.02;48.63
56689;BME280;42565;53.342;-1.534;2023-05-23T00:13:21;100081.55;;;16.01;47.59
56689;BME280;42565;53.342;-1.534;2023-05-23T00:15:48;100082.72;;;16.59;47.42
56689;BME280;42565;53.342;-1.534;2023-05-23T00:18:16;100081.73;;;16.35;47.13
56689;BME280;42565;53.342;-1.534;2023-05-23T00:20:44;100082.10;;;15.83;48.09
56689;BME280;42565;53.342;-1.534;2023-05-23T00:23:12;100081.04;;;16.04;48.11
56689;BME280;42565;53.342;-1.534;2023-05-23T00:25:39;100081.52;;;16.12;48.42
56689;BME280;42565;53.342;-1.534;2023-05-23T00:28:06;100081.19;;;16.30;48.82
56689;BME280;42565;53.342;-1.534;2023-05-23T00:30:33;100081.75;;;15.52;49.77
56689;BME280;42565;53.342;-1.534;2023-05-23T00:33:00;100081.05;;;15.32;50.82
56689;BME280;42565;53.342;-1.534;2023-05-23T00:35:27;100081.11;;;15.31;51.10
56689;BME280;42565;53.342;-1.534;2023-05-23T00:37:54;100082.83;;;15.34;51.88
56689;BME280;42565;53.342;-1.534;2023-05-23T00:40:21;100085.01;;;15.34;51.77
56689;BME280;42565;53.342;-1.534;2023-05-23T00:42:49;100080.94;;;15.48;51.41
56689;BME280;42565;53.342;-1.534;2023-05-23T00:45:16;100085.54;;;15.50;50.76
56689;BME280;42565;53.342;-1.534;2023-05-23T00:47:43;100083.92;;;15.37;52.20
56689;BME280;42565;53.342;-1.534;2023-05-23T00:50:13;100078.53;;;15.51;51.81
56689;BME280;42565;53.342;-1.534;2023-05-23T00:52:42;100079.54;;;16.26;50.51
56689;BME280;42565;53.342;-1.534;2023-05-23T00:55:10;100080.79;;;16.24;50.42
56689;BME280;42565;53.342;-1.534;2023-05-23T00:57:38;100078.29;;;16.22;50.48
56689;BME280;42565;53.342;-1.534;2023-05-23T01:00:07;100074.97;;;16.15;50.19
56689;BME280;42565;53.342;-1.534;2023-05-23T01:02:37;100074.83;;;16.05;49.50
56689;BME280;42565;53.342;-1.534;2023-05-23T01:05:06;100075.45;;;15.37;50.96
56689;BME280;42565;53.342;-1.534;2023-05-23T01:07:33;100074.31;;;15.70;51.85
56689;BME280;42565;53.342;-1.534;2023-05-23T01:09:59;100072.42;;;15.72;51.28
56689;BME280;42565;53.342;-1.534;2023-05-23T01:12:31;100070.86;;;15.39;51.37
56689;BME280;42565;53.342;-1.534;2023-05-23T01:15:06;100073.08;;;15.83;51.54
56689;BME280;42565;53.342;-1.534;2023-05-23T01:17:38;100077.30;;;15.70;51.73
56689;BME280;42565;53.342;-1.534;2023-05-23T01:20:10;100078.93;;;15.84;51.05
56689;BME280;42565;53.342;-1.534;2023-05-23T01:22:51;100079.17;;;15.40;52.02
56689;BME280;42565;53.342;-1.534;2023-05-23T01:25:29;100075.75;;;15.49;51.78
56689;BME280;42565;53.342;-1.534;2023-05-23T01:28:02;100075.75;;;15.55;52.07
56689;BME280;42565;53.342;-1.534;2023-05-23T01:30:35;100073.52;;;15.74;50.84
56689;BME280;42565;53.342;-1.534;2023-05-23T01:33:07;100078.36;;;15.38;51.99
56689;BME280;42565;53.342;-1.534;2023-05-23T01:35:34;100079.14;;;15.43;50.63
56689;BME280;42565;53.342;-1.534;2023-05-23T01:38:01;100083.61;;;15.49;51.06
56689;BME280;42565;53.342;-1.534;2023-05-23T01:40:29;100084.15;;;15.33;51.31
56689;BME280;42565;53.342;-1.534;2023-05-23T01:42:57;100088.83;;;15.44;51.72
56689;BME280;42565;53.342;-1.534;2023-05-23T01:45:25;100090.70;;;14.95;52.51
56689;BME280;42565;53.342;-1.534;2023-05-23T01:47:55;100090.71;;;15.55;51.54
56689;BME280;42565;53.342;-1.534;2023-05-23T01:50:23;100093.21;;;15.17;50.54
56689;BME280;42565;53.342;-1.534;2023-05-23T01:52:51;100091.70;;;15.69;50.67
56689;BME280;42565;53.342;-1.534;2023-05-23T01:55:20;100090.86;;;15.05;50.71
56689;BME280;42565;53.342;-1.534;2023-05-23T01:57:49;100091.65;;;15.36;51.49
56689;BME280;42565;53.342;-1.534;2023-05-23T02:00:17;100090.93;;;14.91;51.92
56689;BME280;42565;53.342;-1.534;2023-05-23T02:02:45;100093.19;;;15.21;51.65
56689;BME280;42565;53.342;-1.534;2023-05-23T02:05:13;100093.62;;;15.64;51.28
56689;BME280;42565;53.342;-1.534;2023-05-23T02:07:40;100094.67;;;15.99;50.52
56689;BME280;42565;53.342;-1.534;2023-05-23T02:10:08;100091.89;;;15.63;51.35
56689;BME280;42565;53.342;-1.534;2023-05-23T02:12:36;100096.34;;;15.67;51.45
56689;BME280;42565;53.342;-1.534;2023-05-23T02:15:03;100101.15;;;15.17;52.49
56689;BME280;42565;53.342;-1.534;2023-05-23T02:17:30;100104.06;;;15.00;51.89
56689;BME280;42565;53.342;-1.534;2023-05-23T02:19:57;100104.08;;;14.95;52.36
56689;BME280;42565;53.342;-1.534;2023-05-23T02:22:24;100104.10;;;14.38;52.99
56689;BME280;42565;53.342;-1.534;2023-05-23T02:24:51;100096.84;;;15.02;52.57
56689;BME280;42565;53.342;-1.534;2023-05-23T02:27:18;100101.45;;;15.09;50.95
56689;BME280;42565;53.342;-1.534;2023-05-23T02:29:45;100100.94;;;15.25;51.89
56689;BME280;42565;53.342;-1.534;2023-05-23T02:32:13;100099.42;;;15.40;52.31
56689;BME280;42565;53.342;-1.534;2023-05-23T02:34:40;100098.62;;;15.25;51.57
56689;BME280;42565;53.342;-1.534;2023-05-23T02:37:07;100097.14;;;15.05;51.82
56689;BME280;42565;53.342;-1.534;2023-05-23T02:39:35;100098.96;;;15.46;50.43
56689;BME280;42565;53.342;-1.534;2023-05-23T02:42:02;100099.94;;;15.56;49.60
56689;BME280;42565;53.342;-1.534;2023-05-23T02:44:30;100098.34;;;15.26;50.05
56689;BME280;42565;53.342;-1.534;2023-05-23T02:46:56;100099.07;;;14.85;50.83
56689;BME280;42565;53.342;-1.534;2023-05-23T02:49:23;100103.47;;;14.10;52.03
56689;BME280;42565;53.342;-1.534;2023-05-23T02:51:50;100103.43;;;14.17;52.53
56689;BME280;42565;53.342;-1.534;2023-05-23T02:54:17;100100.81;;;14.44;51.20
56689;BME280;42565;53.342;-1.534;2023-05-23T02:56:45;100101.16;;;15.20;50.34
56689;BME280;42565;53.342;-1.534;2023-05-23T02:59:12;100101.08;;;14.87;50.72
56689;BME280;42565;53.342;-1.534;2023-05-23T03:01:39;100098.74;;;14.59;51.42
56689;BME280;42565;53.342;-1.534;2023-05-23T03:04:06;100098.37;;;14.38;51.93
56689;BME280;42565;53.342;-1.534;2023-05-23T03:06:33;100099.20;;;13.86;52.41
56689;BME280;42565;53.342;-1.534;2023-05-23T03:09:00;100100.84;;;14.49;52.01
56689;BME280;42565;53.342;-1.534;2023-05-23T03:11:27;100104.65;;;14.51;51.15
56689;BME280;42565;53.342;-1.534;2023-05-23T03:13:54;100102.51;;;14.55;50.80
56689;BME280;42565;53.342;-1.534;2023-05-23T03:16:21;100101.45;;;14.08;50.94
56689;BME280;42565;53.342;-1.534;2023-05-23T03:18:49;100097.81;;;14.51;51.19
56689;BME280;42565;53.342;-1.534;2023-05-23T03:21:16;100097.32;;;13.97;51.13
56689;BME280;42565;53.342;-1.534;2023-05-23T03:23:43;100097.48;;;14.07;50.82
56689;BME280;42565;53.342;-1.534;2023-05-23T03:26:10;100102.29;;;14.09;51.21
56689;BME280;42565;53.342;-1.534;2023-05-23T03:28:37;100104.85;;;14.22;50.88
56689;BME280;42565;53.342;-1.534;2023-05-23T03:31:04;100107.90;;;14.31;49.91
56689;BME280;42565;53.342;-1.534;2023-05-23T03:33:32;100108.13;;;15.03;48.72
56689;BME280;42565;53.342;-1.534;2023-05-23T03:35:59;100113.73;;;14.42;49.43
56689;BME280;42565;53.342;-1.534;2023-05-23T03:38:26;100109.71;;;14.04;49.35
56689;BME280;42565;53.342;-1.534;2023-05-23T03:40:53;100113.13;;;13.93;49.68
56689;BME280;42565;53.342;-1.534;2023-05-23T03:43:20;100114.63;;;13.79;50.07
56689;BME280;42565;53.342;-1.534;2023-05-23T03:45:47;100114.84;;;14.18;50.19
56689;BME280;42565;53.342;-1.534;2023-05-23T03:48:14;100112.75;;;13.88;49.91
56689;BME280;42565;53.342;-1.534;2023-05-23T03:50:41;100106.93;;;13.97;50.00
56689;BME280;42565;53.342;-1.534;2023-05-23T03:53:09;100108.64;;;14.16;50.29
56689;BME280;42565;53.342;-1.534;2023-05-23T03:55:35;100108.63;;;14.32;50.16
56689;BME280;42565;53.342;-1.534;2023-05-23T03:58:02;100110.10;;;14.25;50.17
56689;BME280;42565;53.342;-1.534;2023-05-23T04:00:30;100111.95;;;14.62;49.24
56689;BME280;42565;53.342;-1.534;2023-05-23T04:02:56;100109.59;;;14.15;50.22
56689;BME280;42565;53.342;-1.534;2023-05-23T04:05:23;100113.57;;;14.14;49.57
56689;BME280;42565;53.342;-1.534;2023-05-23T04:07:50;100110.96;;;14.56;49.98
56689;BME280;42565;53.342;-1.534;2023-05-23T04:10:17;100112.00;;;14.42;48.44
56689;BME280;42565;53.342;-1.534;2023-05-23T04:12:44;100117.67;;;14.96;48.15
56689;BME280;42565;53.342;-1.534;2023-05-23T04:15:11;100115.38;;;14.79;49.20
56689;BME280;42565;53.342;-1.534;2023-05-23T04:17:38;100113.43;;;14.69;49.05
56689;BME280;42565;53.342;-1.534;2023-05-23T04:20:07;100113.92;;;14.69;48.71
56689;BME280;42565;53.342;-1.534;2023-05-23T04:22:34;100113.16;;;15.28;47.15
56689;BME280;42565;53.342;-1.534;2023-05-23T04:25:01;100113.95;;;15.41;47.60
56689;BME280;42565;53.342;-1.534;2023-05-23T04:27:29;100116.23;;;14.70;47.91
56689;BME280;42565;53.342;-1.534;2023-05-23T04:29:55;100114.91;;;14.95;47.65
56689;BME280;42565;53.342;-1.534;2023-05-23T04:32:22;100114.31;;;14.73;47.57
56689;BME280;42565;53.342;-1.534;2023-05-23T04:34:49;100118.24;;;15.37;47.50
56689;BME280;42565;53.342;-1.534;2023-05-23T04:37:16;100115.97;;;14.99;47.61
56689;BME280;42565;53.342;-1.534;2023-05-23T04:39:44;100116.52;;;15.29;47.39
56689;BME280;42565;53.342;-1.534;2023-05-23T04:42:10;100118.29;;;15.45;47.00
56689;BME280;42565;53.342;-1.534;2023-05-23T04:44:37;100119.28;;;14.98;47.80
56689;BME280;42565;53.342;-1.534;2023-05-23T04:47:04;100117.61;;;15.43;48.05
56689;BME280;42565;53.342;-1.534;2023-05-23T04:49:31;100118.92;;;15.12;47.87
56689;BME280;42565;53.342;-1.534;2023-05-23T04:51:58;100117.65;;;15.20;48.71
56689;BME280;42565;53.342;-1.534;2023-05-23T04:54:26;100124.41;;;14.82;49.42
56689;BME280;42565;53.342;-1.534;2023-05-23T04:56:52;100125.22;;;15.05;48.67
56689;BME280;42565;53.342;-1.534;2023-05-23T04:59:20;100124.73;;;14.88;48.69
56689;BME280;42565;53.342;-1.534;2023-05-23T05:01:47;100123.51;;;15.05;49.52
56689;BME280;42565;53.342;-1.534;2023-05-23T05:04:15;100122.33;;;14.70;49.56
56689;BME280;42565;53.342;-1.534;2023-05-23T05:06:42;100125.20;;;15.01;50.31
56689;BME280;42565;53.342;-1.534;2023-05-23T05:09:08;100127.44;;;15.18;50.79
56689;BME280;42565;53.342;-1.534;2023-05-23T05:11:35;100124.84;;;15.07;50.80
56689;BME280;42565;53.342;-1.534;2023-05-23T05:14:02;100124.14;;;15.52;49.55
56689;BME280;42565;53.342;-1.534;2023-05-23T05:16:29;100128.34;;;15.02;49.61
56689;BME280;42565;53.342;-1.534;2023-05-23T05:18:56;100125.76;;;15.30;49.46
56689;BME280;42565;53.342;-1.534;2023-05-23T05:21:23;100132.02;;;14.79;50.06
56689;BME280;42565;53.342;-1.534;2023-05-23T05:23:50;100134.59;;;15.14;49.43
56689;BME280;42565;53.342;-1.534;2023-05-23T05:26:17;100128.32;;;14.66;50.13
56689;BME280;42565;53.342;-1.534;2023-05-23T05:28:44;100128.85;;;15.18;49.47
56689;BME280;42565;53.342;-1.534;2023-05-23T05:31:12;100132.15;;;15.50;48.93
56689;BME280;42565;53.342;-1.534;2023-05-23T05:33:39;100130.00;;;15.08;49.16
56689;BME280;42565;53.342;-1.534;2023-05-23T05:36:07;100131.05;;;15.44;48.09
56689;BME280;42565;53.342;-1.534;2023-05-23T05:38:34;100129.72;;;15.46;48.60
56689;BME280;42565;53.342;-1.534;2023-05-23T05:41:01;100130.05;;;15.32;48.58
56689;BME280;42565;53.342;-1.534;2023-05-23T05:43:28;100125.93;;;15.53;47.00
56689;BME280;42565;53.342;-1.534;2023-05-23T05:45:55;100128.08;;;15.75;47.05
56689;BME280;42565;53.342;-1.534;2023-05-23T05:48:22;100119.70;;;15.46;47.22
56689;BME280;42565;53.342;-1.534;2023-05-23T05:50:49;100115.90;;;15.50;46.65
56689;BME280;42565;53.342;-1.534;2023-05-23T05:53:16;100116.56;;;15.29;46.53
56689;BME280;42565;53.342;-1.534;2023-05-23T05:55:43;100117.37;;;15.46;46.59
56689;BME280;42565;53.342;-1.534;2023-05-23T05:58:10;100120.16;;;15.53;48.15
56689;BME280;42565;53.342;-1.534;2023-05-23T06:00:37;100117.57;;;15.51;48.09
56689;BME280;42565;53.342;-1.534;2023-05-23T06:03:04;100118.69;;;15.48;48.33
56689;BME280;42565;53.342;-1.534;2023-05-23T06:05:31;100118.25;;;15.24;49.33
56689;BME280;42565;53.342;-1.534;2023-05-23T06:07:57;100115.98;;;15.58;48.97
56689;BME280;42565;53.342;-1.534;2023-05-23T06:10:24;100117.90;;;15.69;47.55
56689;BME280;42565;53.342;-1.534;2023-05-23T06:12:52;100114.12;;;15.75;47.50
56689;BME280;42565;53.342;-1.534;2023-05-23T06:15:19;100113.39;;;15.51;48.25
56689;BME280;42565;53.342;-1.534;2023-05-23T06:17:46;100111.48;;;15.87;47.24
56689;BME280;42565;53.342;-1.534;2023-05-23T06:20:13;100115.67;;;15.91;46.46
56689;BME280;42565;53.342;-1.534;2023-05-23T06:22:40;100118.50;;;16.29;44.91
56689;BME280;42565;53.342;-1.534;2023-05-23T06:25:07;100120.16;;;15.95;44.51
56689;BME280;42565;53.342;-1.534;2023-05-23T06:27:35;100128.31;;;16.29;43.63
56689;BME280;42565;53.342;-1.534;2023-05-23T06:30:03;100127.56;;;16.50;41.38
56689;BME280;42565;53.342;-1.534;2023-05-23T06:32:30;100130.41;;;16.39;41.49
56689;BME280;42565;53.342;-1.534;2023-05-23T06:34:56;100135.16;;;16.45;41.14
56689;BME280;42565;53.342;-1.534;2023-05-23T06:37:24;100135.95;;;16.24;41.32
56689;BME280;42565;53.342;-1.534;2023-05-23T06:39:51;100134.76;;;16.55;41.35
56689;BME280;42565;53.342;-1.534;2023-05-23T06:42:18;100132.33;;;16.15;41.13
56689;BME280;42565;53.342;-1.534;2023-05-23T06:44:45;100131.11;;;16.37;41.37
56689;BME280;42565;53.342;-1.534;2023-05-23T06:47:12;100129.20;;;16.68;41.36
56689;BME280;42565;53.342;-1.534;2023-05-23T06:49:39;100124.38;;;16.83;38.86
56689;BME280;42565;53.342;-1.534;2023-05-23T06:52:06;100124.50;;;16.39;40.73
56689;BME280;42565;53.342;-1.534;2023-05-23T06:54:33;100130.41;;;16.79;40.36
56689;BME280;42565;53.342;-1.534;2023-05-23T06:57:02;100130.98;;;16.35;40.38
56689;BME280;42565;53.342;-1.534;2023-05-23T06:59:29;100132.73;;;16.48;40.49
56689;BME280;42565;53.342;-1.534;2023-05-23T07:01:56;100131.38;;;16.79;39.69
56689;BME280;42565;53.342;-1.534;2023-05-23T07:04:24;100130.43;;;17.24;39.30
56689;BME280;42565;53.342;-1.534;2023-05-23T07:06:52;100127.65;;;17.11;38.66
56689;BME280;42565;53.342;-1.534;2023-05-23T07:09:20;100126.11;;;17.07;37.11
56689;BME280;42565;53.342;-1.534;2023-05-23T07:11:47;100126.98;;;17.22;36.61
56689;BME280;42565;53.342;-1.534;2023-05-23T07:14:14;100125.25;;;17.36;36.75
56689;BME280;42565;53.342;-1.534;2023-05-23T07:16:42;100132.46;;;16.59;37.20
56689;BME280;42565;53.342;-1.534;2023-05-23T07:19:08;100137.86;;;16.52;38.14
56689;BME280;42565;53.342;-1.534;2023-05-23T07:21:35;100138.89;;;16.42;36.51
56689;BME280;42565;53.342;-1.534;2023-05-23T07:24:02;100135.40;;;16.84;36.36
56689;BME280;42565;53.342;-1.534;2023-05-23T07:26:29;100138.21;;;16.16;37.11
56689;BME280;42565;53.342;-1.534;2023-05-23T07:28:56;100146.16;;;16.25;37.65
56689;BME280;42565;53.342;-1.534;2023-05-23T07:31:24;100150.06;;;16.29;37.75
56689;BME280;42565;53.342;-1.534;2023-05-23T07:33:51;100151.97;;;16.39;36.67
56689;BME280;42565;53.342;-1.534;2023-05-23T07:36:19;100158.07;;;15.76;37.57
56689;BME280;42565;53.342;-1.534;2023-05-23T07:38:46;100158.87;;;17.09;37.92
56689;BME280;42565;53.342;-1.534;2023-05-23T07:41:13;100161.18;;;16.93;36.55
56689;BME280;42565;53.342;-1.534;2023-05-23T07:43:40;100161.52;;;16.39;36.55
56689;BME280;42565;53.342;-1.534;2023-05-23T07:46:07;100160.77;;;16.53;38.27
56689;BME280;42565;53.342;-1.534;2023-05-23T07:48:34;100160.34;;;16.40;36.42
56689;BME280;42565;53.342;-1.534;2023-05-23T07:51:01;100163.79;;;15.74;37.09
56689;BME280;42565;53.342;-1.534;2023-05-23T07:53:29;100162.73;;;16.12;37.96
56689;BME280;42565;53.342;-1.534;2023-05-23T07:55:56;100158.84;;;16.69;37.18
56689;BME280;42565;53.342;-1.534;2023-05-23T07:58:22;100160.24;;;16.85;37.55
56689;BME280;42565;53.342;-1.534;2023-05-23T08:00:49;100158.77;;;17.71;36.73
56689;BME280;42565;53.342;-1.534;2023-05-23T08:03:16;100156.91;;;16.12;35.35
56689;BME280;42565;53.342;-1.534;2023-05-23T08:05:43;100156.59;;;16.72;34.77
56689;BME280;42565;53.342;-1.534;2023-05-23T08:08:10;100150.07;;;17.03;34.85
56689;BME280;42565;53.342;-1.534;2023-05-23T08:10:37;100146.37;;;16.89;33.86
56689;BME280;42565;53.342;-1.534;2023-05-23T08:13:03;100147.23;;;16.56;34.58
56689;BME280;42565;53.342;-1.534;2023-05-23T08:15:30;100143.21;;;16.37;34.69
56689;BME280;42565;53.342;-1.534;2023-05-23T08:17:58;100141.58;;;16.25;34.15
56689;BME280;42565;53.342;-1.534;2023-05-23T08:20:25;100143.54;;;16.29;32.18
56689;BME280;42565;53.342;-1.534;2023-05-23T08:22:52;100140.51;;;15.61;33.88
56689;BME280;42565;53.342;-1.534;2023-05-23T08:25:18;100142.71;;;15.73;36.04
56689;BME280;42565;53.342;-1.534;2023-05-23T08:27:45;100143.66;;;16.32;34.62
56689;BME280;42565;53.342;-1.534;2023-05-23T08:30:14;100141.08;;;15.99;34.71
56689;BME280;42565;53.342;-1.534;2023-05-23T08:32:41;100142.78;;;15.46;36.98
56689;BME280;42565;53.342;-1.534;2023-05-23T08:35:08;100144.65;;;15.80;34.43
56689;BME280;42565;53.342;-1.534;2023-05-23T08:37:35;100145.98;;;16.33;34.98
56689;BME280;42565;53.342;-1.534;2023-05-23T08:40:03;100146.31;;;16.83;33.74
56689;BME280;42565;53.342;-1.534;2023-05-23T08:42:32;100146.47;;;16.51;34.09
56689;BME280;42565;53.342;-1.534;2023-05-23T08:45:00;100141.32;;;16.57;33.92
56689;BME280;42565;53.342;-1.534;2023-05-23T08:47:28;100145.49;;;16.74;34.38
56689;BME280;42565;53.342;-1.534;2023-05-23T08:49:58;100144.88;;;16.26;33.36
56689;BME280;42565;53.342;-1.534;2023-05-23T08:52:26;100141.86;;;16.80;33.25
56689;BME280;42565;53.342;-1.534;2023-05-23T08:54:56;100141.47;;;16.95;32.54
56689;BME280;42565;53.342;-1.534;2023-05-23T08:57:23;100144.13;;;15.43;34.67
56689;BME280;42565;53.342;-1.534;2023-05-23T08:59:51;100144.14;;;16.67;34.63
56689;BME280;42565;53.342;-1.534;2023-05-23T09:02:19;100150.15;;;15.90;35.76
56689;BME280;42565;53.342;-1.534;2023-05-23T09:04:47;100148.49;;;16.92;34.73
56689;BME280;42565;53.342;-1.534;2023-05-23T09:07:15;100147.55;;;16.39;35.17
56689;BME280;42565;53.342;-1.534;2023-05-23T09:09:44;100147.54;;;16.72;35.54
56689;BME280;42565;53.342;-1.534;2023-05-23T09:12:12;100147.57;;;15.76;35.63
56689;BME280;42565;53.342;-1.534;2023-05-23T09:14:39;100144.32;;;16.49;34.88
56689;BME280;42565;53.342;-1.534;2023-05-23T09:17:06;100147.14;;;16.95;34.00
56689;BME280;42565;53.342;-1.534;2023-05-23T09:19:32;100151.18;;;16.17;35.01
56689;BME280;42565;53.342;-1.534;2023-05-23T09:22:01;100148.89;;;17.04;34.93
56689;BME280;42565;53.342;-1.534;2023-05-23T09:24:33;100146.94;;;17.03;34.68
56689;BME280;42565;53.342;-1.534;2023-05-23T09:27:00;100144.74;;;17.26;33.61
56689;BME280;42565;53.342;-1.534;2023-05-23T09:29:27;100143.78;;;16.89;33.81
56689;BME280;42565;53.342;-1.534;2023-05-23T09:31:59;100145.74;;;16.59;34.82
56689;BME280;42565;53.342;-1.534;2023-05-23T09:34:27;100144.54;;;16.94;34.71
56689;BME280;42565;53.342;-1.534;2023-05-23T09:36:54;100145.67;;;17.25;34.72
56689;BME280;42565;53.342;-1.534;2023-05-23T09:39:22;100140.50;;;17.46;32.84
56689;BME280;42565;53.342;-1.534;2023-05-23T09:41:49;100135.86;;;17.53;33.51
56689;BME280;42565;53.342;-1.534;2023-05-23T09:44:22;100134.90;;;17.39;34.62
56689;BME280;42565;53.342;-1.534;2023-05-23T09:46:50;100143.35;;;16.61;33.91
56689;BME280;42565;53.342;-1.534;2023-05-23T09:49:17;100141.46;;;16.22;34.12
56689;BME280;42565;53.342;-1.534;2023-05-23T09:51:56;100137.90;;;15.30;35.95
56689;BME280;42565;53.342;-1.534;2023-05-23T09:54:23;100135.20;;;16.10;35.30
56689;BME280;42565;53.342;-1.534;2023-05-23T09:56:52;100140.81;;;16.47;35.19
56689;BME280;42565;53.342;-1.534;2023-05-23T09:59:20;100137.53;;;16.32;35.80
56689;BME280;42565;53.342;-1.534;2023-05-23T10:01:50;100132.52;;;17.46;36.36
56689;BME280;42565;53.342;-1.534;2023-05-23T10:04:21;100136.68;;;16.56;34.72
56689;BME280;42565;53.342;-1.534;2023-05-23T10:06:50;100131.34;;;17.81;34.50
56689;BME280;42565;53.342;-1.534;2023-05-23T10:09:18;100128.25;;;16.76;33.80
56689;BME280;42565;53.342;-1.534;2023-05-23T10:12:31;100123.61;;;18.54;33.37
56689;BME280;42565;53.342;-1.534;2023-05-23T10:15:04;100124.36;;;16.94;34.86
56689;BME280;42565;53.342;-1.534;2023-05-23T10:17:36;100120.71;;;17.22;36.08
56689;BME280;42565;53.342;-1.534;2023-05-23T10:20:09;100117.17;;;18.07;34.51
56689;BME280;42565;53.342;-1.534;2023-05-23T10:22:37;100114.39;;;18.67;35.41
56689;BME280;42565;53.342;-1.534;2023-05-23T10:25:05;100111.47;;;18.71;33.34
56689;BME280;42565;53.342;-1.534;2023-05-23T10:27:32;100108.14;;;18.86;32.66
56689;BME280;42565;53.342;-1.534;2023-05-23T10:30:00;100105.53;;;19.74;32.69
56689;BME280;42565;53.342;-1.534;2023-05-23T10:32:28;100105.52;;;19.65;32.53
56689;BME280;42565;53.342;-1.534;2023-05-23T10:35:00;100104.28;;;20.25;32.38
56689;BME280;42565;53.342;-1.534;2023-05-23T10:37:34;100105.29;;;19.67;31.18
56689;BME280;42565;53.342;-1.534;2023-05-23T10:40:09;100108.02;;;20.11;31.77
56689;BME280;42565;53.342;-1.534;2023-05-23T10:42:44;100098.97;;;19.43;31.20
56689;BME280;42565;53.342;-1.534;2023-05-23T10:45:18;100100.33;;;20.32;30.89
56689;BME280;42565;53.342;-1.534;2023-05-23T10:47:46;100096.95;;;20.91;31.69
56689;BME280;42565;53.342;-1.534;2023-05-23T10:50:16;100088.10;;;21.57;31.31
56689;BME280;42565;53.342;-1.534;2023-05-23T10:52:56;100083.13;;;21.56;29.81
56689;BME280;42565;53.342;-1.534;2023-05-23T10:55:23;100081.95;;;20.26;30.15
56689;BME280;42565;53.342;-1.534;2023-05-23T10:58:08;100076.95;;;20.43;32.43
56689;BME280;42565;53.342;-1.534;2023-05-23T11:00:35;100077.24;;;20.82;30.01
56689;BME280;42565;53.342;-1.534;2023-05-23T11:03:04;100073.02;;;21.27;30.15
56689;BME280;42565;53.342;-1.534;2023-05-23T11:05:31;100077.80;;;20.73;31.14
56689;BME280;42565;53.342;-1.534;2023-05-23T11:08:06;100078.84;;;19.80;32.72
56689;BME280;42565;53.342;-1.534;2023-05-23T11:10:51;100079.57;;;19.39;32.66
56689;BME280;42565;53.342;-1.534;2023-05-23T11:13:19;100081.18;;;19.50;32.57
56689;BME280;42565;53.342;-1.534;2023-05-23T11:15:47;100076.70;;;19.22;32.51
56689;BME280;42565;53.342;-1.534;2023-05-23T11:18:23;100079.40;;;19.70;34.12
56689;BME280;42565;53.342;-1.534;2023-05-23T11:20:53;100077.18;;;19.62;33.11
56689;BME280;42565;53.342;-1.534;2023-05-23T11:23:21;100082.00;;;20.06;33.16
56689;BME280;42565;53.342;-1.534;2023-05-23T11:25:49;100083.93;;;21.06;32.95
56689;BME280;42565;53.342;-1.534;2023-05-23T11:28:18;100080.53;;;20.66;32.85
56689;BME280;42565;53.342;-1.534;2023-05-23T11:30:47;100085.55;;;20.73;33.46
56689;BME280;42565;53.342;-1.534;2023-05-23T11:33:16;100084.61;;;20.78;34.55
56689;BME280;42565;53.342;-1.534;2023-05-23T11:35:44;100083.02;;;20.84;34.49
56689;BME280;42565;53.342;-1.534;2023-05-23T11:38:13;100083.23;;;20.56;33.90
56689;BME280;42565;53.342;-1.534;2023-05-23T11:40:44;100082.31;;;21.11;33.96
56689;BME280;42565;53.342;-1.534;2023-05-23T11:43:14;100082.99;;;20.33;34.78
56689;BME280;42565;53.342;-1.534;2023-05-23T11:45:42;100083.57;;;20.14;35.90
56689;BME280;42565;53.342;-1.534;2023-05-23T11:48:10;100084.15;;;19.94;36.00
56689;BME280;42565;53.342;-1.534;2023-05-23T11:50:47;100090.42;;;19.27;36.96
56689;BME280;42565;53.342;-1.534;2023-05-23T11:53:15;100088.05;;;19.55;38.00
56689;BME280;42565;53.342;-1.534;2023-05-23T11:55:48;100087.87;;;19.69;38.17
56689;BME280;42565;53.342;-1.534;2023-05-23T11:58:16;100083.03;;;18.96;37.65
56689;BME280;42565;53.342;-1.534;2023-05-23T12:00:44;100075.82;;;19.15;37.48
56689;BME280;42565;53.342;-1.534;2023-05-23T12:03:11;100076.40;;;18.96;38.19
56689;BME280;42565;53.342;-1.534;2023-05-23T12:05:41;100075.82;;;18.81;38.02
56689;BME280;42565;53.342;-1.534;2023-05-23T12:08:11;100070.62;;;19.30;38.07
56689;BME280;42565;53.342;-1.534;2023-05-23T12:10:48;100069.81;;;19.19;38.92
56689;BME280;42565;53.342;-1.534;2023-05-23T12:13:15;100071.43;;;19.62;38.47
56689;BME280;42565;53.342;-1.534;2023-05-23T12:15:43;100073.48;;;19.31;37.18
56689;BME280;42565;53.342;-1.534;2023-05-23T12:18:11;100072.73;;;19.57;37.64
56689;BME280;42565;53.342;-1.534;2023-05-23T12:20:40;100065.85;;;19.07;37.59
56689;BME280;42565;53.342;-1.534;2023-05-23T12:23:07;100066.96;;;19.24;38.43
56689;BME280;42565;53.342;-1.534;2023-05-23T12:25:37;100066.50;;;18.82;38.66
56689;BME280;42565;53.342;-1.534;2023-05-23T12:28:05;100064.58;;;18.95;38.90
56689;BME280;42565;53.342;-1.534;2023-05-23T12:30:40;100060.27;;;19.76;37.58
56689;BME280;42565;53.342;-1.534;2023-05-23T12:33:07;100057.82;;;18.57;39.26
56689;BME280;42565;53.342;-1.534;2023-05-23T12:35:35;100057.60;;;19.60;38.67
56689;BME280;42565;53.342;-1.534;2023-05-23T12:38:05;100051.88;;;20.10;34.78
56689;BME280;42565;53.342;-1.534;2023-05-23T12:40:32;100048.06;;;19.58;35.82
56689;BME280;42565;53.342;-1.534;2023-05-23T12:42:59;100048.01;;;20.22;36.35
56689;BME280;42565;53.342;-1.534;2023-05-23T12:45:31;100049.42;;;20.45;35.03